Time;durP1;ratioP1;P1;durP2;ratioP2;P2;SDS_P1;SDS_P2;PMS_P1;PMS_P2;Temp;Humidity;BMP_temperature;BMP_pressure;BME280_temperature;BME280_humidity;BME280_pressure;Samples;Min_cycle;Max_cycle;Signal;HPM_P1;HPM_P2
2023/09/13 00:00:57;;;;;;;4.40;2.90;;;;;;;18.31;100.00;101101.85;109955;1241;73606;-69
2023/09/13 00:03:34;;;;;;;5.20;2.90;;;;;;;18.27;100.00;101098.63;109990;1242;57740;-68
2023/09/13 00:06:03;;;;;;;4.70;2.60;;;;;;;18.25;100.00;101098.15;109835;1241;57192;-69
2023/09/13 00:08:32;;;;;;;4.70;2.90;;;;;;;18.21;100.00;101084.84;109971;1241;73524;-70
2023/09/13 00:11:05;;;;;;;5.00;2.90;;;;;;;18.27;100.00;101093.05;109980;1242;61443;-69
2023/09/13 00:13:33;;;;;;;3.80;3.10;;;;;;;18.28;100.00;101091.73;109777;1241;69640;-69
2023/09/13 00:16:03;;;;;;;5.00;2.90;;;;;;;18.34;100.00;101092.50;109954;1240;63826;-69
2023/09/13 00:18:32;;;;;;;5.30;3.10;;;;;;;18.34;100.00;101095.90;109749;1242;57767;-70
2023/09/13 00:21:01;;;;;;;5.10;2.90;;;;;;;18.32;100.00;101095.23;109988;1240;57598;-69
2023/09/13 00:23:30;;;;;;;4.20;2.70;;;;;;;18.32;100.00;101095.91;109928;1241;72965;-69
2023/09/13 00:25:58;;;;;;;4.60;2.90;;;;;;;18.28;100.00;101089.27;109922;1240;72508;-69
2023/09/13 00:28:27;;;;;;;3.40;2.90;;;;;;;18.35;100.00;101096.14;109968;1241;60691;-71
2023/09/13 00:30:57;;;;;;;5.70;3.20;;;;;;;18.35;100.00;101098.48;109899;1241;73822;-70
2023/09/13 00:33:26;;;;;;;6.60;2.80;;;;;;;18.39;100.00;101103.88;109955;1242;57398;-71
2023/09/13 00:35:58;;;;;;;3.70;3.00;;;;;;;18.44;100.00;101107.95;109649;1240;57679;-69
2023/09/13 00:38:27;;;;;;;4.50;3.30;;;;;;;18.40;100.00;101104.09;109941;1241;72999;-70
2023/09/13 00:40:56;;;;;;;4.80;3.00;;;;;;;18.25;100.00;101104.11;109764;1241;63944;-68
2023/09/13 00:43:25;;;;;;;3.40;2.90;;;;;;;18.04;100.00;101101.16;109785;1240;70072;-69
2023/09/13 00:45:54;;;;;;;4.90;2.90;;;;;;;17.89;100.00;101098.59;109603;1245;63425;-68
2023/09/13 00:48:23;;;;;;;5.60;2.80;;;;;;;17.79;100.00;101102.89;109740;1245;57501;-68
2023/09/13 00:50:53;;;;;;;7.50;3.50;;;;;;;17.74;100.00;101101.06;109773;1241;57567;-68
2023/09/13 00:53:23;;;;;;;5.10;3.00;;;;;;;17.69;100.00;101097.63;109748;1244;63418;-69
2023/09/13 00:55:53;;;;;;;5.90;2.70;;;;;;;17.60;100.00;101095.48;109776;1240;62813;-69
2023/09/13 00:58:22;;;;;;;4.10;3.20;;;;;;;17.49;100.00;101097.05;109750;1245;59975;-68
2023/09/13 01:00:53;;;;;;;5.30;3.00;;;;;;;17.40;100.00;101097.21;109721;1244;73787;-68
2023/09/13 01:03:23;;;;;;;6.20;3.20;;;;;;;17.27;100.00;101097.23;109907;1242;57177;-69
2023/09/13 01:05:55;;;;;;;6.40;3.10;;;;;;;17.24;100.00;101094.05;109772;1245;57781;-68
2023/09/13 01:08:24;;;;;;;5.70;3.00;;;;;;;17.35;100.00;101090.00;109688;1241;62771;-68
2023/09/13 01:10:53;;;;;;;5.50;3.40;;;;;;;17.47;100.00;101089.34;109668;1242;70773;-68
2023/09/13 01:13:23;;;;;;;5.40;3.20;;;;;;;17.47;100.00;101094.48;109900;1241;70964;-68
2023/09/13 01:16:17;;;;;;;9.10;3.80;;;;;;;17.42;100.00;101095.67;109879;1241;73068;-68
2023/09/13 01:19:05;;;;;;;4.00;3.10;;;;;;;17.37;100.00;101093.84;109913;1241;57497;-68
2023/09/13 01:22:03;;;;;;;4.40;3.60;;;;;;;17.34;100.00;101091.30;109798;1239;59217;-69
2023/09/13 01:25:21;;;;;;;5.10;3.00;;;;;;;17.30;100.00;101093.27;109879;1241;63590;-69
2023/09/13 01:28:01;;;;;;;5.50;3.10;;;;;;;17.30;100.00;101095.41;109763;1242;61545;-69
2023/09/13 01:30:31;;;;;;;8.30;3.10;;;;;;;17.30;100.00;101095.00;109765;1240;70544;-69
2023/09/13 01:33:00;;;;;;;4.80;3.10;;;;;;;17.31;100.00;101100.16;109749;1240;73956;-69
2023/09/13 01:35:30;;;;;;;4.40;3.00;;;;;;;17.31;100.00;101094.27;109722;1244;57590;-70
2023/09/13 01:37:59;;;;;;;3.90;3.20;;;;;;;17.24;100.00;101098.02;109785;1241;60533;-71
2023/09/13 01:40:35;;;;;;;3.70;3.20;;;;;;;17.19;100.00;101092.84;109818;1240;73117;-69
2023/09/13 01:43:05;;;;;;;5.30;3.50;;;;;;;17.14;100.00;101090.39;109745;1240;71643;-69
2023/09/13 01:45:34;;;;;;;7.00;3.40;;;;;;;17.05;100.00;101088.95;109669;1240;69744;-68
2023/09/13 01:48:04;;;;;;;7.40;3.40;;;;;;;16.94;100.00;101092.39;109811;1244;63495;-68
2023/09/13 01:50:34;;;;;;;8.00;3.60;;;;;;;16.86;100.00;101090.52;109817;1244;57179;-69
2023/09/13 01:53:03;;;;;;;6.00;3.50;;;;;;;16.77;100.00;101094.53;109804;1240;61069;-68
2023/09/13 01:55:35;;;;;;;6.40;3.50;;;;;;;16.73;100.00;101093.80;109999;1241;62477;-70
2023/09/13 01:58:04;;;;;;;8.00;3.80;;;;;;;16.74;100.00;101093.27;109677;1245;62053;-69
2023/09/13 02:00:33;;;;;;;6.30;3.70;;;;;;;16.82;100.00;101094.23;109782;1242;67903;-68
2023/09/13 02:03:02;;;;;;;9.40;4.10;;;;;;;16.89;100.00;101097.82;109930;1239;73740;-68
2023/09/13 02:05:31;;;;;;;6.40;3.30;;;;;;;17.05;100.00;101097.75;109733;1244;57433;-68
2023/09/13 02:07:59;;;;;;;6.20;3.90;;;;;;;17.07;100.00;101093.96;109758;1240;60399;-68
2023/09/13 02:10:28;;;;;;;5.30;4.10;;;;;;;17.06;100.00;101089.85;109777;1242;63179;-67
2023/09/13 02:13:00;;;;;;;5.30;3.80;;;;;;;16.99;100.00;101088.08;109785;1244;61536;-67
2023/09/13 02:15:29;;;;;;;6.00;4.20;;;;;;;16.92;100.00;101089.98;109728;1240;70279;-67
2023/09/13 02:17:57;;;;;;;6.20;3.60;;;;;;;16.84;100.00;101091.55;109721;1241;74069;-67
2023/09/13 02:20:26;;;;;;;5.40;3.60;;;;;;;16.81;100.00;101093.86;109716;1241;57720;-66
2023/09/13 02:22:55;;;;;;;5.70;3.50;;;;;;;16.72;100.00;101088.77;109701;1242;57092;-70
2023/09/13 02:25:23;;;;;;;5.70;3.60;;;;;;;16.60;100.00;101092.70;109613;1241;73441;-71
2023/09/13 02:27:52;;;;;;;4.90;3.30;;;;;;;16.49;100.00;101096.51;109596;1244;71989;-69
2023/09/13 02:30:22;;;;;;;5.70;3.60;;;;;;;16.37;100.00;101098.35;109809;1241;60270;-70
2023/09/13 02:32:51;;;;;;;6.40;3.70;;;;;;;16.27;100.00;101093.29;109459;1247;72970;-70
2023/09/13 02:35:20;;;;;;;5.50;3.60;;;;;;;16.20;100.00;101092.32;109601;1242;57203;-69
2023/09/13 02:37:49;;;;;;;5.50;3.90;;;;;;;16.09;100.00;101083.30;109755;1241;57599;-69
2023/09/13 02:40:18;;;;;;;6.50;3.60;;;;;;;16.07;100.00;101089.64;109777;1240;71593;-69
2023/09/13 02:42:47;;;;;;;5.70;3.90;;;;;;;16.02;100.00;101086.95;109698;1240;61457;-69
2023/09/13 02:45:16;;;;;;;7.40;4.10;;;;;;;15.94;100.00;101087.80;109590;1244;59471;-70
2023/09/13 02:47:46;;;;;;;5.60;3.90;;;;;;;15.87;100.00;101086.35;109654;1240;63797;-70
2023/09/13 02:50:15;;;;;;;6.50;4.00;;;;;;;15.79;100.00;101083.73;109657;1243;62679;-69
2023/09/13 02:52:43;;;;;;;4.70;3.80;;;;;;;15.72;100.00;101086.03;109723;1241;57427;-69
2023/09/13 02:55:12;;;;;;;7.10;4.30;;;;;;;15.65;100.00;101081.94;109903;1241;62560;-68
2023/09/13 02:57:41;;;;;;;12.10;4.40;;;;;;;15.60;100.00;101084.64;109734;1241;61533;-69
2023/09/13 03:00:11;;;;;;;7.90;4.90;;;;;;;15.56;100.00;101083.05;109758;1241;59806;-69
2023/09/13 03:02:42;;;;;;;9.80;4.50;;;;;;;15.52;100.00;101083.06;109910;1241;63488;-69
2023/09/13 03:05:11;;;;;;;12.10;4.70;;;;;;;15.46;100.00;101075.36;109908;1241;62142;-70
2023/09/13 03:07:39;;;;;;;5.70;4.20;;;;;;;15.41;100.00;101075.56;109949;1240;61968;-70
2023/09/13 03:10:09;;;;;;;6.40;3.70;;;;;;;15.38;100.00;101076.89;109888;1238;74015;-69
2023/09/13 03:12:38;;;;;;;7.10;4.80;;;;;;;15.35;100.00;101075.20;109878;1238;61926;-70
2023/09/13 03:15:09;;;;;;;6.80;4.20;;;;;;;15.33;100.00;101075.19;109827;1240;69575;-71
2023/09/13 03:17:38;;;;;;;9.60;5.20;;;;;;;15.30;100.00;101072.64;109848;1239;72906;-70
2023/09/13 03:20:09;;;;;;;7.40;5.00;;;;;;;15.29;100.00;101073.94;109800;1238;62800;-69
2023/09/13 03:22:38;;;;;;;9.30;5.30;;;;;;;15.28;100.00;101073.03;109894;1238;57761;-69
2023/09/13 03:25:07;;;;;;;9.90;5.60;;;;;;;15.26;100.00;101072.65;109899;1241;62816;-69
2023/09/13 03:27:36;;;;;;;6.30;4.10;;;;;;;15.23;100.00;101075.55;109844;1238;71434;-69
2023/09/13 03:30:06;;;;;;;7.90;4.60;;;;;;;15.19;100.00;101070.96;110035;1238;60511;-68
2023/09/13 03:32:35;;;;;;;8.00;4.20;;;;;;;15.16;100.00;101068.96;109889;1242;63700;-69
2023/09/13 03:35:05;;;;;;;9.00;4.90;;;;;;;15.15;100.00;101067.87;109781;1241;62476;-70
2023/09/13 03:37:36;;;;;;;6.50;4.70;;;;;;;15.13;100.00;101068.16;109715;1241;60899;-71
2023/09/13 03:40:06;;;;;;;10.30;5.40;;;;;;;15.08;100.00;101066.34;109762;1241;73063;-70
2023/09/13 03:42:35;;;;;;;9.20;5.70;;;;;;;15.09;100.00;101070.61;109751;1239;71703;-70
2023/09/13 03:45:05;;;;;;;24.00;13.90;;;;;;;15.06;100.00;101075.23;109743;1239;71176;-70
2023/09/13 03:47:34;;;;;;;14.00;5.70;;;;;;;15.04;100.00;101078.80;109801;1241;63713;-70
2023/09/13 03:50:04;;;;;;;10.60;5.30;;;;;;;15.03;100.00;101082.16;109784;1240;61965;-70
2023/09/13 03:52:32;;;;;;;10.40;5.10;;;;;;;15.05;100.00;101081.48;109794;1240;61552;-68
2023/09/13 03:55:01;;;;;;;9.90;4.90;;;;;;;15.05;100.00;101086.58;109771;1239;63323;-68
2023/09/13 03:57:30;;;;;;;13.20;5.00;;;;;;;15.03;100.00;101084.98;109795;1241;61650;-68
2023/09/13 03:59:59;;;;;;;10.40;5.20;;;;;;;14.98;100.00;101082.05;109982;1239;59112;-68
2023/09/13 04:02:28;;;;;;;9.20;5.00;;;;;;;14.97;100.00;101087.83;109792;1240;62651;-69
2023/09/13 04:04:57;;;;;;;7.90;4.90;;;;;;;14.97;100.00;101089.73;109783;1239;57556;-68
2023/09/13 04:07:26;;;;;;;8.30;4.90;;;;;;;14.96;100.00;101094.88;109829;1241;61009;-67
2023/09/13 04:09:55;;;;;;;16.40;6.40;;;;;;;14.97;100.00;101093.21;109821;1239;73737;-68
2023/09/13 04:12:23;;;;;;;16.40;5.40;;;;;;;14.95;100.00;101099.17;109821;1241;71737;-67
2023/09/13 04:14:52;;;;;;;12.30;5.40;;;;;;;14.96;100.00;101091.73;109967;1239;60273;-66
2023/09/13 04:17:21;;;;;;;11.90;5.50;;;;;;;14.99;100.00;101093.52;109928;1240;73767;-66
2023/09/13 04:19:50;;;;;;;18.30;5.60;;;;;;;15.05;100.00;101096.05;109676;1244;57504;-66
2023/09/13 04:22:19;;;;;;;20.70;6.70;;;;;;;15.10;100.00;101093.50;109769;1241;60043;-66
2023/09/13 04:24:47;;;;;;;19.60;5.90;;;;;;;15.18;100.00;101093.27;109921;1241;73963;-66
2023/09/13 04:27:23;;;;;;;19.90;5.70;;;;;;;15.22;100.00;101094.64;109795;1238;62204;-67
2023/09/13 04:29:56;;;;;;;12.30;5.00;;;;;;;15.26;100.00;101094.73;109689;1239;70378;-67
2023/09/13 04:32:25;;;;;;;;;;;;;;;15.29;100.00;101096.95;109683;1239;63109;-67
2023/09/13 04:34:55;;;;;;;16.90;6.20;;;;;;;15.32;100.00;101095.65;109685;1244;62694;-66
2023/09/13 04:37:25;;;;;;;15.40;6.40;;;;;;;15.38;100.00;101094.13;109846;1238;60594;-66
2023/09/13 04:39:56;;;;;;;21.70;6.70;;;;;;;15.46;100.00;101090.83;109931;1238;73232;-66
2023/09/13 04:42:25;;;;;;;30.00;12.30;;;;;;;15.55;100.00;101091.89;109926;1240;72476;-66
2023/09/13 04:44:53;;;;;;;17.50;8.10;;;;;;;15.66;100.00;101091.89;109913;1238;70521;-66
2023/09/13 04:47:22;;;;;;;17.50;7.50;;;;;;;15.76;100.00;101094.36;109781;1238;64056;-66
2023/09/13 04:49:51;;;;;;;12.90;7.80;;;;;;;15.87;100.00;101098.89;109830;1238;57245;-66
2023/09/13 04:52:20;;;;;;;15.20;7.70;;;;;;;16.11;100.00;101102.31;110057;1238;57643;-66
2023/09/13 04:54:49;;;;;;;20.70;8.50;;;;;;;16.37;100.00;101103.59;109845;1239;73520;-66
2023/09/13 04:57:18;;;;;;;21.20;6.90;;;;;;;16.51;100.00;101093.90;109840;1238;71760;-66
2023/09/13 04:59:48;;;;;;;17.30;7.20;;;;;;;16.61;100.00;101091.20;109821;1238;70617;-67
2023/09/13 05:02:17;;;;;;;18.20;7.90;;;;;;;16.67;100.00;101090.11;109813;1238;72552;-66
2023/09/13 05:04:47;;;;;;;14.80;6.90;;;;;;;16.76;100.00;101091.12;109834;1242;62079;-67
2023/09/13 05:07:16;;;;;;;23.50;6.40;;;;;;;16.85;100.00;101088.86;110007;1238;60059;-66
2023/09/13 05:09:44;;;;;;;13.20;5.70;;;;;;;16.97;100.00;101091.66;110006;1238;74143;-67
2023/09/13 05:12:13;;;;;;;11.30;6.10;;;;;;;17.09;100.00;101088.35;110060;1238;60841;-67
2023/09/13 05:14:43;;;;;;;17.90;6.30;;;;;;;17.35;100.00;101091.05;110077;1238;59835;-66
2023/09/13 05:17:12;;;;;;;13.20;5.60;;;;;;;17.56;100.00;101090.77;110073;1238;62252;-67
2023/09/13 05:19:41;;;;;;;21.60;6.40;;;;;;;17.68;100.00;101089.10;109984;1240;57085;-66
2023/09/13 05:22:10;;;;;;;18.40;5.40;;;;;;;17.86;100.00;101083.52;110003;1238;60396;-66
2023/09/13 05:24:38;;;;;;;14.30;6.30;;;;;;;18.05;100.00;101083.06;110040;1238;63624;-67
2023/09/13 05:27:07;;;;;;;12.20;4.80;;;;;;;18.22;100.00;101084.89;109998;1238;61194;-66
2023/09/13 05:29:36;;;;;;;9.90;4.80;;;;;;;18.31;100.00;101086.67;109913;1241;59058;-67
2023/09/13 05:32:05;;;;;;;15.40;4.70;;;;;;;18.38;100.00;101092.13;110020;1238;73769;-67
2023/09/13 05:34:34;;;;;;;13.20;4.80;;;;;;;18.46;100.00;101087.81;109978;1238;62208;-66
2023/09/13 05:37:03;;;;;;;16.00;4.70;;;;;;;18.55;100.00;101089.69;110032;1238;60927;-66
2023/09/13 05:39:31;;;;;;;15.20;5.30;;;;;;;18.68;100.00;101090.02;110050;1238;73080;-66
2023/09/13 05:42:02;;;;;;;12.00;4.80;;;;;;;18.73;100.00;101091.31;110025;1238;61359;-66
2023/09/13 05:44:33;;;;;;;17.90;5.10;;;;;;;18.85;100.00;101089.25;110065;1238;68959;-67
2023/09/13 05:47:02;;;;;;;13.30;5.20;;;;;;;18.87;100.00;101087.80;109628;1238;358789;-67
2023/09/13 05:49:30;;;;;;;18.00;5.20;;;;;;;18.96;100.00;101083.86;110019;1238;60888;-67
2023/09/13 05:51:59;;;;;;;15.30;5.80;;;;;;;19.13;100.00;101083.40;109884;1238;59784;-66
2023/09/13 05:54:28;;;;;;;20.20;5.30;;;;;;;19.14;100.00;101076.15;109870;1239;63327;-67
2023/09/13 05:56:57;;;;;;;13.10;4.80;;;;;;;19.25;100.00;101078.39;109854;1238;71124;-67
2023/09/13 05:59:26;;;;;;;13.10;5.40;;;;;;;19.38;100.00;101087.73;109867;1238;70015;-68
2023/09/13 06:01:55;;;;;;;16.40;6.00;;;;;;;19.44;100.00;101087.87;109666;1238;72264;-68
2023/09/13 06:04:24;;;;;;;15.50;4.90;;;;;;;19.52;100.00;101091.84;109993;1240;57509;-68
2023/09/13 06:06:53;;;;;;;16.70;5.10;;;;;;;19.58;100.00;101091.23;109881;1241;57295;-68
2023/09/13 06:09:22;;;;;;;17.40;5.00;;;;;;;19.67;100.00;101087.23;110069;1238;62430;-68
2023/09/13 06:11:51;;;;;;;15.60;5.00;;;;;;;19.76;100.00;101087.40;109848;1238;61433;-68
2023/09/13 06:14:20;;;;;;;19.00;4.80;;;;;;;19.68;100.00;101083.83;109775;1240;69724;-88
2023/09/13 06:16:48;;;;;;;11.20;4.80;;;;;;;19.71;100.00;101084.70;109955;1238;65480;-78
2023/09/13 06:19:18;;;;;;;13.70;4.10;;;;;;;19.86;100.00;101084.80;109997;1238;57602;-85
2023/09/13 06:21:47;;;;;;;10.50;4.50;;;;;;;20.01;100.00;101083.66;109987;1238;61151;-84
2023/09/13 06:24:16;;;;;;;9.10;4.80;;;;;;;20.09;100.00;101085.99;109777;1238;73174;-87
2023/09/13 06:26:45;;;;;;;8.60;4.50;;;;;;;20.19;100.00;101084.78;109943;1238;61235;-84
2023/09/13 06:29:14;;;;;;;11.30;4.40;;;;;;;20.30;100.00;101084.66;109830;1238;60378;-81
2023/09/13 06:31:44;;;;;;;10.20;4.50;;;;;;;20.39;100.00;101084.84;109996;1238;72983;-82
2023/09/13 06:34:37;;;;;;;8.70;4.50;;;;;;;20.45;100.00;101087.96;110175;1240;57718;-83
2023/09/13 06:37:07;;;;;;;9.60;4.40;;;;;;;20.57;100.00;101087.88;110147;1238;57657;-80
2023/09/13 06:39:36;;;;;;;10.50;5.30;;;;;;;20.68;100.00;101087.77;109843;1238;74015;-81
2023/09/13 06:42:06;;;;;;;10.10;4.50;;;;;;;20.83;100.00;101084.73;110036;1239;72570;-81
2023/09/13 06:44:54;;;;;;;9.40;4.90;;;;;;;20.93;100.00;101086.41;109920;1238;71634;-86
2023/09/13 06:47:43;;;;;;;10.10;4.20;;;;;;;21.14;100.00;101088.26;110035;1238;65408;-89
2023/09/13 06:50:13;;;;;;;10.10;4.80;;;;;;;21.29;100.00;101089.74;109777;1238;57960;-91
2023/09/13 06:52:43;;;;;;;15.50;4.90;;;;;;;21.41;100.00;101081.46;110045;1239;57825;-86
2023/09/13 06:55:33;;;;;;;9.60;4.50;;;;;;;21.43;100.00;101074.79;109922;1241;62929;-86
2023/09/13 06:58:07;;;;;;;11.40;4.40;;;;;;;21.59;100.00;101078.93;110022;1238;60971;-86
2023/09/13 07:00:42;;;;;;;8.50;5.10;;;;;;;21.72;99.91;101083.82;109825;1238;70616;-85
2023/09/13 07:03:31;;;;;;;10.90;4.90;;;;;;;21.91;99.14;101082.70;109767;1241;74310;-85
2023/09/13 07:06:13;;;;;;;11.80;5.10;;;;;;;22.02;98.20;101081.61;109913;1239;57677;-87
2023/09/13 07:08:42;;;;;;;12.30;5.20;;;;;;;22.20;97.87;101083.27;109718;1243;57166;-87
2023/09/13 07:11:11;;;;;;;10.60;4.80;;;;;;;22.32;97.16;101086.70;109751;1240;73599;-88
2023/09/13 07:13:40;;;;;;;10.60;4.60;;;;;;;22.45;96.39;101093.46;109849;1240;62477;-90
2023/09/13 07:16:09;;;;;;;11.70;5.30;;;;;;;22.49;95.55;101095.31;109564;1245;59913;-87
2023/09/13 07:18:38;;;;;;;12.90;4.60;;;;;;;22.64;95.91;101094.13;109758;1242;62348;-87
2023/09/13 07:21:07;;;;;;;11.00;4.30;;;;;;;22.75;94.91;101090.61;109666;1244;57618;-88
2023/09/13 07:23:36;;;;;;;8.80;4.20;;;;;;;22.83;92.32;101091.92;109686;1242;57729;-87
2023/09/13 07:26:05;;;;;;;6.10;3.60;;;;;;;22.93;91.12;101088.92;109971;1239;62451;-89
2023/09/13 07:28:34;;;;;;;9.70;4.50;;;;;;;23.10;90.49;101088.00;109848;1238;72183;-88
2023/09/13 07:31:10;;;;;;;11.00;3.50;;;;;;;23.29;88.30;101081.92;110032;1238;59572;-70
2023/09/13 07:33:39;;;;;;;12.90;4.00;;;;;;;23.40;83.70;101073.48;109583;1244;63270;-70
2023/09/13 07:36:08;;;;;;;7.70;3.20;;;;;;;23.65;81.28;101082.05;109894;1238;57716;-71
2023/09/13 07:38:37;;;;;;;8.70;3.30;;;;;;;23.64;79.96;101079.30;109827;1239;59984;-69
2023/09/13 07:41:06;;;;;;;11.40;3.40;;;;;;;23.75;80.35;101079.95;109811;1239;63334;-70
2023/09/13 07:43:35;;;;;;;4.90;2.60;;;;;;;23.75;79.16;101082.71;109859;1241;61623;-70
2023/09/13 07:46:04;;;;;;;9.40;3.00;;;;;;;23.84;78.99;101081.28;109954;1239;59002;-69
2023/09/13 07:48:33;;;;;;;9.00;3.20;;;;;;;23.92;78.69;101082.80;109943;1241;63376;-70
2023/09/13 07:51:02;;;;;;;6.10;3.30;;;;;;;23.96;78.31;101081.80;109761;1240;61110;-71
2023/09/13 07:53:31;;;;;;;8.70;3.20;;;;;;;24.03;78.30;101081.02;109898;1241;57229;-70
2023/09/13 07:56:02;;;;;;;8.80;3.50;;;;;;;24.20;77.49;101080.20;109867;1240;61955;-70
2023/09/13 07:58:31;;;;;;;6.80;3.70;;;;;;;24.33;77.50;101077.30;109812;1241;61530;-71
2023/09/13 08:01:00;;;;;;;5.50;3.20;;;;;;;24.56;78.15;101074.84;109671;1241;70362;-72
2023/09/13 08:03:28;;;;;;;6.40;3.20;;;;;;;24.62;75.91;101068.39;109783;1239;73929;-70
2023/09/13 08:05:59;;;;;;;9.80;3.10;;;;;;;24.62;76.17;101062.64;109777;1241;60684;-70
2023/09/13 08:08:28;;;;;;;10.70;3.10;;;;;;;24.67;75.57;101059.02;109777;1239;61265;-76
2023/09/13 08:10:56;;;;;;;10.30;3.30;;;;;;;24.69;75.77;101054.42;109681;1242;65064;-75
2023/09/13 08:13:25;;;;;;;7.90;2.90;;;;;;;24.87;75.07;101056.48;109791;1241;61275;-69
2023/09/13 08:15:54;;;;;;;9.70;3.30;;;;;;;24.75;74.61;101051.59;109759;1239;59063;-81
2023/09/13 08:18:23;;;;;;;8.80;3.30;;;;;;;24.67;74.37;101050.87;109681;1242;62268;-73
2023/09/13 08:20:52;;;;;;;8.90;3.30;;;;;;;24.67;74.82;101049.94;109737;1240;60631;-77
2023/09/13 08:23:20;;;;;;;6.90;3.50;;;;;;;24.85;74.96;101052.59;109687;1240;61793;-74
2023/09/13 08:25:49;;;;;;;6.10;2.90;;;;;;;25.12;73.98;101056.98;109582;1244;73821;-74
2023/09/13 08:28:18;;;;;;;5.30;3.00;;;;;;;25.07;73.91;101054.11;109757;1240;61964;-75
2023/09/13 08:30:49;;;;;;;6.70;3.10;;;;;;;25.23;73.81;101051.27;109776;1241;70433;-74
2023/09/13 08:33:17;;;;;;;7.10;3.30;;;;;;;25.13;73.57;101044.31;109721;1240;72571;-73
2023/09/13 08:35:47;;;;;;;5.20;3.00;;;;;;;25.28;73.77;101045.83;109782;1239;57587;-73
2023/09/13 08:38:16;;;;;;;6.20;3.10;;;;;;;25.54;73.06;101039.51;109765;1240;57125;-73
2023/09/13 08:40:46;;;;;;;7.00;3.50;;;;;;;25.46;72.45;101037.55;109774;1241;73761;-72
2023/09/13 08:43:15;;;;;;;8.70;3.20;;;;;;;25.50;72.98;101037.65;109623;1244;62204;-72
2023/09/13 08:45:53;;;;;;;7.80;3.10;;;;;;;25.78;72.37;101033.17;109772;1240;69652;-73
2023/09/13 08:48:22;;;;;;;6.10;3.20;;;;;;;25.74;71.91;101032.48;109646;1242;74045;-73
2023/09/13 08:50:52;;;;;;;8.40;3.10;;;;;;;25.87;72.12;101030.96;109770;1239;57561;-72
2023/09/13 08:53:24;;;;;;;5.00;2.80;;;;;;;25.96;71.12;101026.54;109599;1242;61125;-71
2023/09/13 08:55:55;;;;;;;10.80;3.20;;;;;;;26.15;70.79;101033.10;109675;1241;74025;-77
2023/09/13 08:58:26;;;;;;;6.90;2.80;;;;;;;26.25;71.24;101028.61;109869;1238;72617;-72
2023/09/13 09:00:58;;;;;;;8.50;3.30;;;;;;;26.41;70.11;101032.70;109689;1239;72042;-74
2023/09/13 09:03:28;;;;;;;7.30;3.20;;;;;;;26.49;69.72;101032.17;109904;1241;74097;-71
2023/09/13 09:05:58;;;;;;;7.50;3.50;;;;;;;26.51;69.72;101026.68;109758;1241;57779;-79
2023/09/13 09:08:28;;;;;;;9.30;3.80;;;;;;;26.60;69.71;101027.33;109814;1241;57446;-71
2023/09/13 09:10:59;;;;;;;6.30;3.40;;;;;;;26.79;68.78;101026.27;109980;1241;62231;-71
2023/09/13 09:13:31;;;;;;;8.60;3.60;;;;;;;26.74;68.53;101025.13;109831;1241;61925;-71
2023/09/13 09:16:01;;;;;;;4.60;2.90;;;;;;;26.91;68.43;101023.17;109803;1240;59775;-72
2023/09/13 09:18:33;;;;;;;6.10;3.40;;;;;;;26.98;68.60;101018.56;109684;1240;74542;-72
2023/09/13 09:21:03;;;;;;;6.10;3.00;;;;;;;26.76;69.43;101017.69;109775;1243;57199;-71
2023/09/13 09:23:35;;;;;;;5.80;3.10;;;;;;;26.87;69.12;101020.02;109918;1239;57610;-72
2023/09/13 09:26:04;;;;;;;13.10;3.50;;;;;;;27.11;69.29;101017.91;109783;1241;73424;-71
2023/09/13 09:28:34;;;;;;;7.40;3.70;;;;;;;27.30;68.47;101009.94;109792;1239;61553;-73
2023/09/13 09:31:03;;;;;;;6.30;3.10;;;;;;;27.41;67.81;101015.70;109819;1239;60628;-71
2023/09/13 09:33:33;;;;;;;5.90;3.20;;;;;;;27.11;68.11;101014.70;109859;1239;63259;-72
2023/09/13 09:36:03;;;;;;;6.10;2.90;;;;;;;27.30;68.24;101008.30;109959;1239;60936;-70
2023/09/13 09:38:32;;;;;;;8.30;3.80;;;;;;;27.53;67.97;101009.04;109938;1239;60855;-73
2023/09/13 09:41:06;;;;;;;14.70;3.50;;;;;;;27.68;67.17;101010.00;109972;1240;73265;-72
2023/09/13 09:43:36;;;;;;;6.20;3.00;;;;;;;27.47;67.38;101007.49;109745;1241;61383;-72
2023/09/13 09:46:06;;;;;;;8.60;3.40;;;;;;;27.56;67.38;101008.45;109790;1239;69775;-71
2023/09/13 09:48:34;;;;;;;11.30;3.60;;;;;;;27.76;66.99;101002.93;109798;1242;73897;-74
2023/09/13 09:51:03;;;;;;;7.30;3.70;;;;;;;27.70;66.78;101003.45;110127;1240;57638;-81
2023/09/13 09:53:35;;;;;;;8.50;4.60;;;;;;;27.78;66.41;101002.11;110176;1238;57190;-80
2023/09/13 09:56:04;;;;;;;8.70;4.60;;;;;;;27.99;66.78;101002.95;109834;1240;72648;-83
2023/09/13 09:58:33;;;;;;;11.40;3.80;;;;;;;28.28;64.80;101000.69;109874;1240;72569;-83
2023/09/13 10:01:03;;;;;;;6.00;3.20;;;;;;;28.04;65.24;101001.58;109884;1239;69986;-83
2023/09/13 10:03:33;;;;;;;9.60;3.60;;;;;;;28.09;65.39;100997.52;109666;1242;73983;-77
2023/09/13 10:06:12;;;;;;;8.60;3.30;;;;;;;27.91;65.70;100995.10;109874;1239;57588;-80
2023/09/13 10:08:44;;;;;;;6.70;3.70;;;;;;;28.11;65.42;100992.23;109683;1241;57259;-84
2023/09/13 10:11:20;;;;;;;5.30;3.50;;;;;;;28.18;64.94;100991.21;109587;1240;62718;-85
2023/09/13 10:13:50;;;;;;;7.90;3.20;;;;;;;28.42;64.11;100986.84;109620;1239;62484;-84
2023/09/13 10:16:19;;;;;;;10.90;3.50;;;;;;;28.65;62.76;100985.65;109611;1241;71014;-83
2023/09/13 10:18:51;;;;;;;10.40;4.00;;;;;;;28.50;63.55;100983.12;109612;1240;74457;-84
2023/09/13 10:21:30;;;;;;;7.30;3.50;;;;;;;28.68;64.01;100986.23;109614;1241;57269;-83
2023/09/13 10:24:07;;;;;;;8.40;3.40;;;;;;;28.74;62.02;100988.50;109785;1240;57276;-83
2023/09/13 10:26:35;;;;;;;8.00;3.60;;;;;;;28.89;61.73;100988.79;109661;1239;64391;-84
2023/09/13 10:29:29;;;;;;;6.70;3.40;;;;;;;29.19;60.68;100985.56;109780;1239;61188;-84
2023/09/13 10:32:05;;;;;;;9.40;3.10;;;;;;;29.09;60.55;100986.20;109830;1240;67247;-83
2023/09/13 10:34:39;;;;;;;7.30;3.70;;;;;;;29.11;60.18;100982.88;109797;1240;63296;-84
2023/09/13 10:37:31;;;;;;;5.70;3.30;;;;;;;29.52;59.47;100985.11;109608;1242;60519;-83
2023/09/13 10:40:43;;;;;;;10.20;3.60;;;;;;;29.73;57.71;100980.77;109840;1239;57832;-83
2023/09/13 10:43:13;;;;;;;10.10;3.20;;;;;;;30.10;56.83;100981.56;109783;1238;62817;-84
2023/09/13 10:45:42;;;;;;;13.20;3.70;;;;;;;30.00;56.87;100977.56;109853;1238;61714;-71
2023/09/13 10:48:12;;;;;;;6.40;3.20;;;;;;;30.12;56.83;100975.09;109821;1239;59222;-71
2023/09/13 10:50:41;;;;;;;8.50;3.60;;;;;;;30.06;55.76;100974.00;109767;1239;73219;-71
2023/09/13 10:53:14;;;;;;;4.90;3.20;;;;;;;29.89;56.45;100969.31;109554;1239;60694;-71
2023/09/13 10:55:44;;;;;;;5.70;3.60;;;;;;;29.76;56.83;100964.63;109885;1239;60797;-71
2023/09/13 10:58:20;;;;;;;8.20;3.70;;;;;;;30.09;56.14;100967.15;109731;1240;63853;-71
2023/09/13 11:00:53;;;;;;;7.10;3.20;;;;;;;30.51;54.60;100967.00;109934;1239;61562;-71
2023/09/13 11:03:22;;;;;;;13.50;4.20;;;;;;;30.45;54.66;100963.16;109804;1238;68838;-71
2023/09/13 11:05:57;;;;;;;6.60;3.70;;;;;;;30.84;54.07;100963.30;109780;1240;63786;-71
2023/09/13 11:08:31;;;;;;;8.80;3.80;;;;;;;31.56;52.04;100965.06;109936;1239;61290;-71
2023/09/13 11:11:16;;;;;;;10.40;3.50;;;;;;;31.51;51.47;100962.86;109668;1242;57692;-70
2023/09/13 11:13:52;;;;;;;9.10;3.60;;;;;;;31.09;52.07;100953.86;109598;1239;62990;-70
2023/09/13 11:16:23;;;;;;;8.60;3.40;;;;;;;31.25;51.93;100952.41;109752;1241;62005;-70
2023/09/13 11:18:55;;;;;;;9.00;4.10;;;;;;;32.12;50.15;100956.51;109739;1240;69634;-68
2023/09/13 11:21:28;;;;;;;12.90;3.80;;;;;;;32.02;49.61;100954.59;109496;1240;64645;-68
2023/09/13 11:24:00;;;;;;;;;;;;;;;32.21;48.57;100953.95;109619;1239;60914;-75
2023/09/13 11:26:54;;;;;;;10.20;3.70;;;;;;;33.15;45.14;100946.02;109545;1240;62003;-68